createdAt,value
2019-05-14T04:02:03.604Z,103563.37
2019-05-14T04:05:33.683Z,103558.81
2019-05-14T04:09:03.885Z,103557.69
2019-05-14T04:12:34.005Z,103556.49
2019-05-14T04:16:04.189Z,103560.48
2019-05-14T04:19:34.251Z,103559.18
2019-05-14T04:23:05.258Z,103562.56
2019-05-14T04:26:56.106Z,103563.81
2019-05-14T04:30:11.959Z,103566.78
2019-05-14T04:33:41.972Z,103573.01
2019-05-14T04:37:12.483Z,103571.6
2019-05-14T04:40:42.594Z,103573.1
2019-05-14T04:44:13.797Z,103568.16
2019-05-14T04:47:44.366Z,103570.65
2019-05-14T04:51:14.564Z,103570.51
2019-05-14T04:54:44.789Z,103572.66
2019-05-14T04:58:15.108Z,103569
2019-05-14T05:01:45.271Z,103569.71
2019-05-14T05:05:19.564Z,103571.52
2019-05-14T05:08:50.843Z,103567.34
2019-05-14T05:12:21.942Z,103572.08
2019-05-14T05:15:52.187Z,103566.66
2019-05-14T05:19:22.566Z,103570.87
2019-05-14T05:22:52.765Z,103574.96
2019-05-14T05:26:22.936Z,103580.13
2019-05-14T05:29:53.156Z,103579.7
2019-05-14T05:33:23.331Z,103588.78
2019-05-14T05:36:53.715Z,103584.62
2019-05-14T05:40:23.889Z,103595.31
2019-05-14T05:43:54.151Z,103594.67
2019-05-14T05:47:24.270Z,103597.49
2019-05-14T05:50:54.441Z,103597.98
2019-05-14T05:54:24.845Z,103600.78
2019-05-14T05:57:55.054Z,103598.9
2019-05-14T06:01:41.567Z,103601.01
2019-05-14T06:05:01.440Z,103596.51
2019-05-14T06:08:31.660Z,103595.09
2019-05-14T06:12:01.916Z,103598.21
2019-05-14T06:15:44.428Z,103593.09
2019-05-14T06:19:08.419Z,103589.71
2019-05-14T06:22:39.259Z,103587.95
2019-05-14T06:26:11.947Z,103588.49
2019-05-14T06:29:43.016Z,103595.29
2019-05-14T06:33:13.151Z,103595.81
2019-05-14T06:36:43.295Z,103593.71
2019-05-14T06:40:15.526Z,103591.67
2019-05-14T06:43:48.602Z,103590.21
2019-05-14T06:47:18.792Z,103593.04
2019-05-14T06:50:50.502Z,103589
2019-05-14T06:54:21.728Z,103590.77
2019-05-14T06:57:52.902Z,103595.85
2019-05-14T07:01:22.989Z,103590.04
2019-05-14T07:04:53.252Z,103587.28
2019-05-14T07:08:23.390Z,103587.8
2019-05-14T07:11:53.711Z,103590.22
2019-05-14T07:15:23.830Z,103590.07
2019-05-14T07:18:54.928Z,103596.57
2019-05-14T07:22:27.986Z,103600.32
2019-05-14T07:25:58.838Z,103597.39
2019-05-14T07:29:29.566Z,103598.87
2019-05-14T07:33:00.757Z,103598.73
2019-05-14T07:36:30.909Z,103604.53
2019-05-14T07:40:01.131Z,103600.48
2019-05-14T07:43:31.711Z,103603.07
2019-05-14T07:47:01.609Z,103598.04
2019-05-14T07:50:31.737Z,103600.16
2019-05-14T07:54:01.862Z,103602.39
2019-05-14T07:57:31.963Z,103599.49
2019-05-14T08:01:02.035Z,103597.03
2019-05-14T08:04:32.081Z,103594.42
2019-05-14T08:08:04.152Z,103590.2
2019-05-14T08:11:34.285Z,103593.09
2019-05-14T08:15:15.089Z,103594.34
2019-05-14T08:18:41.437Z,103588.96
2019-05-14T08:22:11.684Z,103588.07
2019-05-14T08:25:41.808Z,103585.28
2019-05-14T08:29:12.029Z,103583.27
2019-05-14T08:32:42.387Z,103584.34
2019-05-14T08:36:12.485Z,103574.56
2019-05-14T08:39:42.588Z,103578.07
2019-05-14T08:43:12.670Z,103574.03
2019-05-14T08:46:45.188Z,103571.17
2019-05-14T08:50:15.742Z,103568.34
2019-05-14T08:53:49.682Z,103559.28
2019-05-14T08:57:19.999Z,103563.12
2019-05-14T09:00:49.917Z,103553.85
2019-05-14T09:04:22.992Z,103555.31
2019-05-14T09:07:53.265Z,103557.64
2019-05-14T09:11:26.242Z,103556
2019-05-14T09:14:59.431Z,103554.4
2019-05-14T09:18:30.550Z,103548.5
2019-05-14T09:22:00.777Z,103562.1
2019-05-14T09:25:30.911Z,103552.5
2019-05-14T09:29:16.912Z,103566.48
2019-05-14T09:32:33.974Z,103551.74
2019-05-14T09:36:17.800Z,103562.93
2019-05-14T09:39:40.199Z,103542.48
2019-05-14T09:43:11.247Z,103561.54
2019-05-14T09:46:41.253Z,103544.82
2019-05-14T09:50:18.447Z,103548.68
2019-05-14T09:53:48.863Z,103557.59
2019-05-14T09:57:19.094Z,103535.42
2019-05-14T10:00:49.925Z,103542.18
2019-05-14T10:04:20.000Z,103535.6
2019-05-14T10:07:51.205Z,103527.56
2019-05-14T10:11:21.242Z,103523.83
2019-05-14T10:14:51.225Z,103526.82
2019-05-14T10:18:22.239Z,103559.43
2019-05-14T10:21:52.368Z,103547.1
2019-05-14T10:25:22.339Z,103536.63
2019-05-14T10:28:52.318Z,103542.14
2019-05-14T10:32:22.366Z,103543.45
2019-05-14T10:35:52.331Z,103532.68
2019-05-14T10:39:22.470Z,103534.37
2019-05-14T10:42:53.429Z,103518.59
2019-05-14T10:46:23.398Z,103507.75
2019-05-14T10:49:53.364Z,103508.91
2019-05-14T10:53:23.361Z,103507.03
2019-05-14T10:56:53.523Z,103507.11
2019-05-14T11:00:23.492Z,103506.2
2019-05-14T11:03:53.487Z,103501.03
2019-05-14T11:07:23.498Z,103501.98
2019-05-14T11:10:55.663Z,103501.62
2019-05-14T11:14:31.627Z,103498.87
2019-05-14T11:18:01.672Z,103501.37
2019-05-14T11:21:31.645Z,103504.5
2019-05-14T11:25:02.641Z,103499.79
2019-05-14T11:28:32.787Z,103509.53
2019-05-14T11:32:02.763Z,103498.14
2019-05-14T11:35:32.740Z,103496.9
2019-05-14T11:39:04.710Z,103495.95
2019-05-14T11:42:34.695Z,103500.09
2019-05-14T11:46:05.357Z,103496.03
2019-05-14T11:49:36.338Z,103501.6
2019-05-14T11:53:08.350Z,103494.34
2019-05-14T11:56:41.741Z,103492.79
2019-05-14T12:00:11.589Z,103489.68
2019-05-14T12:03:41.434Z,103485.45
2019-05-14T12:07:11.429Z,103477.41
2019-05-14T12:10:41.407Z,103478.25
2019-05-14T12:14:11.403Z,103475.85
2019-05-14T12:17:41.650Z,103457.93
2019-05-14T12:21:11.579Z,103445.13
2019-05-14T12:24:41.579Z,103438.59
2019-05-14T12:28:13.938Z,103432.72
2019-05-14T12:31:43.565Z,103435.43
2019-05-14T12:35:13.822Z,103433.31
2019-05-14T12:38:43.815Z,103428.65
2019-05-14T12:42:13.824Z,103424.83
2019-05-14T12:45:43.783Z,103429.08
2019-05-14T12:49:13.779Z,103419.06
2019-05-14T12:52:43.882Z,103406.75
2019-05-14T12:56:13.892Z,103395.09
2019-05-14T12:59:43.871Z,103396.07
2019-05-14T13:03:13.835Z,103397.79
2019-05-14T13:06:43.823Z,103385.15
2019-05-14T13:10:13.987Z,103382.96
2019-05-14T13:13:44.957Z,103394.46
2019-05-14T13:17:15.918Z,103390.29
2019-05-14T13:20:48.220Z,103372.65
2019-05-14T13:24:18.897Z,103366.21
2019-05-14T13:27:49.576Z,103376.4
2019-05-14T13:31:20.547Z,103370.76
2019-05-14T13:34:50.538Z,103364.49
2019-05-14T13:38:20.514Z,103365.05
2019-05-14T13:41:50.529Z,103359.44
2019-05-14T13:45:21.668Z,103356.2
2019-05-14T13:48:51.712Z,103349
2019-05-14T13:52:21.712Z,103341.92
2019-05-14T13:55:57.336Z,103335.21
2019-05-14T13:59:26.083Z,103343.61
2019-05-14T14:02:58.950Z,103336.92
2019-05-14T14:06:28.351Z,103335.25
2019-05-14T14:09:59.273Z,103326.75
2019-05-14T14:13:31.774Z,103324.98
2019-05-14T14:17:02.366Z,103320.91
2019-05-14T14:20:01.590Z,103316.6
2019-05-14T14:23:33.624Z,103316.28
2019-05-14T14:27:03.662Z,103316.89
2019-05-14T14:30:33.739Z,103317.32
2019-05-14T14:34:03.803Z,103316.15
2019-05-14T14:37:33.876Z,103307.34
2019-05-14T14:41:04.061Z,103310.8
2019-05-14T14:44:35.310Z,103306.89
2019-05-14T14:48:05.357Z,103304.1
2019-05-14T14:51:43.692Z,103302.08
2019-05-14T14:55:11.478Z,103298.45
2019-05-14T14:58:41.500Z,103292.88
2019-05-14T15:02:12.547Z,103297.57
2019-05-14T15:05:42.560Z,103287.82
2019-05-14T15:09:12.577Z,103281.09
2019-05-14T15:12:42.722Z,103284.34
2019-05-14T15:16:14.725Z,103282.39
2019-05-14T15:19:44.740Z,103283.84
2019-05-14T15:23:14.782Z,103280.28
2019-05-14T15:26:44.911Z,103276.01
2019-05-14T15:30:15.081Z,103268.82
2019-05-14T15:33:45.128Z,103265.5
2019-05-14T15:37:16.147Z,103266.15
2019-05-14T15:40:48.760Z,103264.09
2019-05-14T15:44:19.641Z,103258.39
2019-05-14T15:47:50.319Z,103252.79
2019-05-14T15:51:21.384Z,103247.75
2019-05-14T15:54:52.411Z,103243.99
2019-05-14T15:58:23.383Z,103247.64
2019-05-14T16:01:53.582Z,103240.37
2019-05-14T16:05:23.585Z,103247.14
2019-05-14T16:08:53.647Z,103244.04
2019-05-14T16:12:23.707Z,103246.32
2019-05-14T16:15:53.775Z,103245.84
2019-05-14T16:19:23.820Z,103237.36
2019-05-14T16:22:53.836Z,103238.1
2019-05-14T16:26:23.834Z,103240
2019-05-14T16:29:53.815Z,103245.47
2019-05-14T16:33:23.797Z,103241.42
2019-05-14T16:36:55.459Z,103237.99
2019-05-14T16:40:28.749Z,103237.01
2019-05-14T16:43:58.751Z,103238.62
2019-05-14T16:47:29.437Z,103233.01
2019-05-14T16:51:00.401Z,103231.78
2019-05-14T16:54:31.572Z,103226.95
2019-05-14T16:58:01.562Z,103228.73
2019-05-14T17:01:33.898Z,103230.23
2019-05-14T17:05:03.489Z,103230.5
2019-05-14T17:08:33.695Z,103223.82
2019-05-14T17:12:03.681Z,103225.92
2019-05-14T17:15:33.631Z,103224.78
2019-05-14T17:19:03.651Z,103217.53
2019-05-14T17:22:34.665Z,103216.65
2019-05-14T17:26:04.613Z,103220.6
2019-05-14T17:29:34.610Z,103216.45
2019-05-14T17:33:04.596Z,103216.7
2019-05-14T17:36:34.600Z,103215.15
2019-05-14T17:40:05.604Z,103216.65
2019-05-14T17:43:39.043Z,103208.65
2019-05-14T17:47:07.827Z,103200.87
2019-05-14T17:50:38.834Z,103203.96
2019-05-14T17:54:09.794Z,103201.29
2019-05-14T17:57:47.151Z,103196.85
2019-05-14T18:01:14.932Z,103190.16
2019-05-14T18:04:48.551Z,103190.23
2019-05-14T18:08:18.366Z,103193.2
2019-05-14T18:11:49.134Z,103187.8
2019-05-14T18:15:18.773Z,103191.4
2019-05-14T18:18:49.731Z,103190.85
2019-05-14T18:22:20.671Z,103187.57
2019-05-14T18:26:04.590Z,103180.75
2019-05-14T18:29:29.259Z,103183.39
2019-05-14T18:32:59.401Z,103173.51
2019-05-14T18:36:30.451Z,103179.14
2019-05-14T18:40:00.435Z,103176.93
2019-05-14T18:43:30.402Z,103178.89
2019-05-14T18:47:01.953Z,103179.07
2019-05-14T18:50:31.930Z,103181.77
2019-05-14T18:54:01.917Z,103184.29
2019-05-14T18:57:31.930Z,103184.39
2019-05-14T19:01:02.951Z,103182.1
2019-05-14T19:04:32.928Z,103179.49
2019-05-14T19:08:02.882Z,103178
2019-05-14T19:11:32.847Z,103177.81
2019-05-14T19:15:02.839Z,103174.03
2019-05-14T19:18:32.941Z,103172.84
2019-05-14T19:22:02.896Z,103173.49
2019-05-14T19:25:32.867Z,103167.85
2019-05-14T19:29:02.837Z,103168
2019-05-14T19:32:32.813Z,103167.25
2019-05-14T19:36:04.130Z,103178.27
2019-05-14T19:39:34.102Z,103179.5
2019-05-14T19:43:04.129Z,103178.62
2019-05-14T19:46:34.098Z,103176.92
2019-05-14T19:50:04.166Z,103166.45
2019-05-14T19:53:34.117Z,103159.85
2019-05-14T19:57:04.110Z,103161.87
2019-05-14T20:00:34.860Z,103167.31
2019-05-14T20:04:05.870Z,103165.06
2019-05-14T20:07:38.585Z,103164.46
2019-05-14T20:11:09.656Z,103164.82
2019-05-14T20:14:39.609Z,103162.92
2019-05-14T20:18:10.569Z,103166.98
2019-05-14T20:21:40.538Z,103169.59
2019-05-14T20:25:23.410Z,103164.32
2019-05-14T20:28:55.295Z,103167.38
2019-05-14T20:32:26.252Z,103169.09
2019-05-14T20:35:58.748Z,103160.6
2019-05-14T20:39:33.832Z,103165.23
2019-05-14T20:43:04.693Z,103162.1
2019-05-14T20:46:34.653Z,103162.89
2019-05-14T20:50:05.605Z,103151.43
2019-05-14T20:53:36.739Z,103157.24
2019-05-14T20:57:23.225Z,103153.46
2019-05-14T21:00:43.586Z,103151.93
2019-05-14T21:04:13.541Z,103152.02
2019-05-14T21:07:43.631Z,103152.4
2019-05-14T21:11:14.577Z,103148.78
2019-05-14T21:14:48.772Z,103151.42
2019-05-14T21:18:19.018Z,103146.97
2019-05-14T21:21:51.451Z,103145.89
2019-05-14T21:25:22.546Z,103139.36
2019-05-14T21:28:52.495Z,103140.86
2019-05-14T21:32:22.454Z,103138.82
2019-05-14T21:35:52.413Z,103133.35
2019-05-14T21:39:22.560Z,103135.65
2019-05-14T21:42:52.453Z,103131.81
2019-05-14T21:46:23.411Z,103133.97
2019-05-14T21:49:53.368Z,103128.21
2019-05-14T21:53:23.330Z,103128.4
2019-05-14T21:56:53.409Z,103130.67
